sensor_id;sensor_type;location;lat;lon;timestamp;P1;durP1;ratioP1;P2;durP2;ratioP2
75616;SDS011;64200;55.426;37.758;2023-03-24T00:01:37;9.07;;;5.50;;
75616;SDS011;64200;55.426;37.758;2023-03-24T00:06:37;7.87;;;4.67;;
75616;SDS011;64200;55.426;37.758;2023-03-24T00:11:38;6.40;;;3.63;;
75616;SDS011;64200;55.426;37.758;2023-03-24T00:16:38;6.15;;;3.80;;
75616;SDS011;64200;55.426;37.758;2023-03-24T00:21:42;5.25;;;3.95;;
75616;SDS011;64200;55.426;37.758;2023-03-24T00:26:43;7.45;;;3.90;;
75616;SDS011;64200;55.426;37.758;2023-03-24T00:31:44;7.10;;;4.17;;
75616;SDS011;64200;55.426;37.758;2023-03-24T00:36:44;5.45;;;3.55;;
75616;SDS011;64200;55.426;37.758;2023-03-24T00:41:45;9.10;;;3.88;;
75616;SDS011;64200;55.426;37.758;2023-03-24T00:46:47;7.00;;;4.35;;
75616;SDS011;64200;55.426;37.758;2023-03-24T00:51:55;6.97;;;4.45;;
75616;SDS011;64200;55.426;37.758;2023-03-24T00:56:57;6.18;;;3.13;;
75616;SDS011;64200;55.426;37.758;2023-03-24T01:01:57;11.10;;;5.33;;
75616;SDS011;64200;55.426;37.758;2023-03-24T01:06:58;4.43;;;3.13;;
75616;SDS011;64200;55.426;37.758;2023-03-24T01:11:58;8.83;;;4.33;;
75616;SDS011;64200;55.426;37.758;2023-03-24T01:16:59;6.23;;;3.63;;
75616;SDS011;64200;55.426;37.758;2023-03-24T01:22:00;7.60;;;4.18;;
75616;SDS011;64200;55.426;37.758;2023-03-24T01:27:01;6.70;;;3.58;;
75616;SDS011;64200;55.426;37.758;2023-03-24T01:32:02;9.48;;;5.32;;
75616;SDS011;64200;55.426;37.758;2023-03-24T01:37:03;9.73;;;4.80;;
75616;SDS011;64200;55.426;37.758;2023-03-24T01:42:03;5.93;;;3.97;;
75616;SDS011;64200;55.426;37.758;2023-03-24T01:47:05;8.85;;;4.78;;
75616;SDS011;64200;55.426;37.758;2023-03-24T01:52:12;6.97;;;4.28;;
75616;SDS011;64200;55.426;37.758;2023-03-24T01:57:19;15.32;;;7.63;;
75616;SDS011;64200;55.426;37.758;2023-03-24T02:02:30;6.60;;;4.32;;
75616;SDS011;64200;55.426;37.758;2023-03-24T02:07:44;11.38;;;5.75;;
75616;SDS011;64200;55.426;37.758;2023-03-24T02:12:52;6.50;;;3.80;;
75616;SDS011;64200;55.426;37.758;2023-03-24T02:45:11;12.05;;;5.82;;
75616;SDS011;64200;55.426;37.758;2023-03-24T02:55:31;7.93;;;4.97;;
75616;SDS011;64200;55.426;37.758;2023-03-24T03:00:41;13.43;;;8.02;;
75616;SDS011;64200;55.426;37.758;2023-03-24T03:05:49;10.35;;;6.35;;
75616;SDS011;64200;55.426;37.758;2023-03-24T03:10:54;11.90;;;6.50;;
75616;SDS011;64200;55.426;37.758;2023-03-24T03:15:59;5.72;;;3.13;;
75616;SDS011;64200;55.426;37.758;2023-03-24T03:21:06;11.90;;;6.55;;
75616;SDS011;64200;55.426;37.758;2023-03-24T03:26:12;7.00;;;4.35;;
75616;SDS011;64200;55.426;37.758;2023-03-24T03:31:18;10.95;;;6.38;;
75616;SDS011;64200;55.426;37.758;2023-03-24T03:36:31;14.13;;;7.30;;
75616;SDS011;64200;55.426;37.758;2023-03-24T03:41:35;10.25;;;5.68;;
75616;SDS011;64200;55.426;37.758;2023-03-24T03:46:37;8.95;;;5.18;;
75616;SDS011;64200;55.426;37.758;2023-03-24T03:51:38;8.38;;;5.18;;
75616;SDS011;64200;55.426;37.758;2023-03-24T03:56:39;8.40;;;5.57;;
75616;SDS011;64200;55.426;37.758;2023-03-24T04:01:41;14.48;;;7.30;;
75616;SDS011;64200;55.426;37.758;2023-03-24T04:17:30;11.52;;;6.28;;
75616;SDS011;64200;55.426;37.758;2023-03-24T04:28:41;11.82;;;7.05;;
75616;SDS011;64200;55.426;37.758;2023-03-24T04:33:53;10.02;;;6.47;;
75616;SDS011;64200;55.426;37.758;2023-03-24T04:39:02;11.38;;;8.27;;
75616;SDS011;64200;55.426;37.758;2023-03-24T04:44:04;10.45;;;6.50;;
75616;SDS011;64200;55.426;37.758;2023-03-24T04:49:05;14.75;;;8.75;;
75616;SDS011;64200;55.426;37.758;2023-03-24T04:54:05;7.82;;;5.35;;
75616;SDS011;64200;55.426;37.758;2023-03-24T04:59:06;15.27;;;8.17;;
75616;SDS011;64200;55.426;37.758;2023-03-24T05:04:07;15.95;;;9.68;;
75616;SDS011;64200;55.426;37.758;2023-03-24T05:09:08;9.18;;;6.38;;
75616;SDS011;64200;55.426;37.758;2023-03-24T05:14:08;9.50;;;5.07;;
75616;SDS011;64200;55.426;37.758;2023-03-24T05:19:09;19.75;;;10.80;;
75616;SDS011;64200;55.426;37.758;2023-03-24T05:24:10;12.15;;;6.93;;
75616;SDS011;64200;55.426;37.758;2023-03-24T05:29:11;11.88;;;7.05;;
75616;SDS011;64200;55.426;37.758;2023-03-24T05:34:11;7.87;;;4.70;;
75616;SDS011;64200;55.426;37.758;2023-03-24T05:39:12;12.57;;;6.90;;
75616;SDS011;64200;55.426;37.758;2023-03-24T05:44:12;11.63;;;8.03;;
75616;SDS011;64200;55.426;37.758;2023-03-24T05:49:13;10.30;;;7.20;;
75616;SDS011;64200;55.426;37.758;2023-03-24T05:54:14;10.05;;;5.28;;
75616;SDS011;64200;55.426;37.758;2023-03-24T05:59:14;16.48;;;8.63;;
75616;SDS011;64200;55.426;37.758;2023-03-24T06:04:15;13.27;;;7.47;;
75616;SDS011;64200;55.426;37.758;2023-03-24T06:09:15;16.57;;;10.23;;
75616;SDS011;64200;55.426;37.758;2023-03-24T06:14:16;19.90;;;11.67;;
75616;SDS011;64200;55.426;37.758;2023-03-24T06:19:17;12.47;;;7.83;;
75616;SDS011;64200;55.426;37.758;2023-03-24T06:24:21;13.30;;;7.55;;
75616;SDS011;64200;55.426;37.758;2023-03-24T06:29:22;14.07;;;7.87;;
75616;SDS011;64200;55.426;37.758;2023-03-24T06:34:22;17.98;;;9.73;;
75616;SDS011;64200;55.426;37.758;2023-03-24T06:39:24;7.25;;;5.43;;
75616;SDS011;64200;55.426;37.758;2023-03-24T06:44:25;11.73;;;6.60;;
75616;SDS011;64200;55.426;37.758;2023-03-24T06:49:26;13.23;;;8.30;;
75616;SDS011;64200;55.426;37.758;2023-03-24T06:54:26;14.38;;;9.27;;
75616;SDS011;64200;55.426;37.758;2023-03-24T06:59:27;12.30;;;7.75;;
75616;SDS011;64200;55.426;37.758;2023-03-24T07:04:28;13.13;;;6.97;;
75616;SDS011;64200;55.426;37.758;2023-03-24T07:09:35;18.92;;;10.50;;
75616;SDS011;64200;55.426;37.758;2023-03-24T07:14:36;8.85;;;5.32;;
75616;SDS011;64200;55.426;37.758;2023-03-24T07:19:36;10.70;;;6.40;;
75616;SDS011;64200;55.426;37.758;2023-03-24T07:24:37;15.60;;;9.32;;
75616;SDS011;64200;55.426;37.758;2023-03-24T07:29:38;6.85;;;4.40;;
75616;SDS011;64200;55.426;37.758;2023-03-24T07:34:38;15.57;;;9.10;;
75616;SDS011;64200;55.426;37.758;2023-03-24T07:39:39;11.87;;;6.67;;
75616;SDS011;64200;55.426;37.758;2023-03-24T07:44:39;10.77;;;6.78;;
75616;SDS011;64200;55.426;37.758;2023-03-24T07:49:40;14.83;;;9.03;;
75616;SDS011;64200;55.426;37.758;2023-03-24T07:54:40;13.43;;;7.03;;
75616;SDS011;64200;55.426;37.758;2023-03-24T07:59:41;11.03;;;6.77;;
75616;SDS011;64200;55.426;37.758;2023-03-24T08:04:41;6.03;;;3.45;;
75616;SDS011;64200;55.426;37.758;2023-03-24T08:09:42;11.30;;;6.70;;
75616;SDS011;64200;55.426;37.758;2023-03-24T08:14:42;12.90;;;8.07;;
75616;SDS011;64200;55.426;37.758;2023-03-24T08:19:43;8.00;;;4.80;;
75616;SDS011;64200;55.426;37.758;2023-03-24T08:24:43;14.20;;;8.20;;
75616;SDS011;64200;55.426;37.758;2023-03-24T08:29:44;9.10;;;4.35;;
75616;SDS011;64200;55.426;37.758;2023-03-24T08:34:45;11.05;;;6.53;;
75616;SDS011;64200;55.426;37.758;2023-03-24T08:39:45;11.10;;;6.47;;
75616;SDS011;64200;55.426;37.758;2023-03-24T08:44:46;9.15;;;5.40;;
75616;SDS011;64200;55.426;37.758;2023-03-24T08:49:47;7.50;;;3.57;;
75616;SDS011;64200;55.426;37.758;2023-03-24T08:54:47;6.93;;;3.83;;
75616;SDS011;64200;55.426;37.758;2023-03-24T08:59:48;6.22;;;4.25;;
75616;SDS011;64200;55.426;37.758;2023-03-24T09:04:48;7.50;;;4.40;;
75616;SDS011;64200;55.426;37.758;2023-03-24T09:09:53;5.80;;;3.83;;
75616;SDS011;64200;55.426;37.758;2023-03-24T09:14:53;6.18;;;3.95;;
75616;SDS011;64200;55.426;37.758;2023-03-24T09:19:54;6.90;;;3.77;;
75616;SDS011;64200;55.426;37.758;2023-03-24T09:24:54;5.32;;;3.40;;
75616;SDS011;64200;55.426;37.758;2023-03-24T09:29:55;6.87;;;4.33;;
75616;SDS011;64200;55.426;37.758;2023-03-24T09:34:55;5.53;;;3.57;;
75616;SDS011;64200;55.426;37.758;2023-03-24T09:39:56;4.30;;;2.87;;
75616;SDS011;64200;55.426;37.758;2023-03-24T09:44:59;5.18;;;2.95;;
75616;SDS011;64200;55.426;37.758;2023-03-24T09:55:33;4.63;;;3.05;;
75616;SDS011;64200;55.426;37.758;2023-03-24T10:00:38;4.78;;;3.00;;
75616;SDS011;64200;55.426;37.758;2023-03-24T10:05:42;4.00;;;2.72;;
75616;SDS011;64200;55.426;37.758;2023-03-24T10:10:52;5.47;;;2.78;;
75616;SDS011;64200;55.426;37.758;2023-03-24T10:16:33;4.22;;;2.80;;
75616;SDS011;64200;55.426;37.758;2023-03-24T10:21:46;3.83;;;2.78;;
75616;SDS011;64200;55.426;37.758;2023-03-24T10:27:26;3.85;;;2.58;;
75616;SDS011;64200;55.426;37.758;2023-03-24T10:32:31;2.90;;;2.13;;
75616;SDS011;64200;55.426;37.758;2023-03-24T10:37:34;4.07;;;2.70;;
75616;SDS011;64200;55.426;37.758;2023-03-24T10:42:35;4.68;;;2.83;;
75616;SDS011;64200;55.426;37.758;2023-03-24T10:47:36;4.32;;;2.53;;
75616;SDS011;64200;55.426;37.758;2023-03-24T10:52:38;6.47;;;2.80;;
75616;SDS011;64200;55.426;37.758;2023-03-24T10:57:41;4.85;;;2.47;;
75616;SDS011;64200;55.426;37.758;2023-03-24T11:02:51;3.42;;;2.53;;
75616;SDS011;64200;55.426;37.758;2023-03-24T11:07:57;3.05;;;2.40;;
75616;SDS011;64200;55.426;37.758;2023-03-24T11:13:16;3.88;;;2.28;;
75616;SDS011;64200;55.426;37.758;2023-03-24T11:18:18;3.10;;;2.45;;
75616;SDS011;64200;55.426;37.758;2023-03-24T11:23:25;3.63;;;2.47;;
75616;SDS011;64200;55.426;37.758;2023-03-24T11:28:32;6.00;;;3.15;;
75616;SDS011;64200;55.426;37.758;2023-03-24T11:33:41;2.83;;;2.55;;
75616;SDS011;64200;55.426;37.758;2023-03-24T11:44:13;3.50;;;2.40;;
75616;SDS011;64200;55.426;37.758;2023-03-24T11:49:19;5.63;;;2.60;;
75616;SDS011;64200;55.426;37.758;2023-03-24T11:54:25;5.25;;;2.70;;
75616;SDS011;64200;55.426;37.758;2023-03-24T11:59:51;4.32;;;2.95;;
75616;SDS011;64200;55.426;37.758;2023-03-24T12:20:52;3.05;;;2.40;;
75616;SDS011;64200;55.426;37.758;2023-03-24T12:26:15;3.47;;;2.60;;
75616;SDS011;64200;55.426;37.758;2023-03-24T12:36:53;4.20;;;2.55;;
75616;SDS011;64200;55.426;37.758;2023-03-24T12:47:22;3.47;;;1.85;;
75616;SDS011;64200;55.426;37.758;2023-03-24T12:57:40;4.38;;;2.17;;
75616;SDS011;64200;55.426;37.758;2023-03-24T13:02:47;2.35;;;1.55;;
75616;SDS011;64200;55.426;37.758;2023-03-24T13:07:54;3.60;;;1.92;;
75616;SDS011;64200;55.426;37.758;2023-03-24T13:13:17;1.67;;;1.38;;
75616;SDS011;64200;55.426;37.758;2023-03-24T13:18:38;2.35;;;1.38;;
75616;SDS011;64200;55.426;37.758;2023-03-24T13:29:15;3.33;;;1.42;;
75616;SDS011;64200;55.426;37.758;2023-03-24T13:34:40;3.22;;;1.40;;
75616;SDS011;64200;55.426;37.758;2023-03-24T13:39:48;4.30;;;1.95;;
75616;SDS011;64200;55.426;37.758;2023-03-24T13:44:55;5.90;;;2.50;;
75616;SDS011;64200;55.426;37.758;2023-03-24T13:49:59;3.25;;;1.42;;
75616;SDS011;64200;55.426;37.758;2023-03-24T13:55:07;3.38;;;1.20;;
75616;SDS011;64200;55.426;37.758;2023-03-24T14:25:56;1.10;;;0.70;;
75616;SDS011;64200;55.426;37.758;2023-03-24T14:36:16;3.25;;;1.67;;
75616;SDS011;64200;55.426;37.758;2023-03-24T14:41:26;2.80;;;1.48;;
75616;SDS011;64200;55.426;37.758;2023-03-24T14:56:39;2.97;;;1.70;;
75616;SDS011;64200;55.426;37.758;2023-03-24T15:01:42;2.75;;;2.05;;
75616;SDS011;64200;55.426;37.758;2023-03-24T15:06:47;2.60;;;1.17;;
75616;SDS011;64200;55.426;37.758;2023-03-24T15:11:48;2.33;;;1.40;;
75616;SDS011;64200;55.426;37.758;2023-03-24T15:16:57;2.28;;;1.60;;
75616;SDS011;64200;55.426;37.758;2023-03-24T15:22:03;2.25;;;1.65;;
75616;SDS011;64200;55.426;37.758;2023-03-24T15:27:13;2.40;;;1.20;;
75616;SDS011;64200;55.426;37.758;2023-03-24T15:32:19;2.40;;;1.42;;
75616;SDS011;64200;55.426;37.758;2023-03-24T15:37:23;2.92;;;1.48;;
75616;SDS011;64200;55.426;37.758;2023-03-24T15:42:37;1.95;;;1.35;;
75616;SDS011;64200;55.426;37.758;2023-03-24T15:52:41;3.40;;;1.38;;
75616;SDS011;64200;55.426;37.758;2023-03-24T15:57:41;2.60;;;1.58;;
75616;SDS011;64200;55.426;37.758;2023-03-24T16:02:44;2.00;;;1.40;;
75616;SDS011;64200;55.426;37.758;2023-03-24T16:13:10;1.67;;;1.38;;
75616;SDS011;64200;55.426;37.758;2023-03-24T16:18:14;2.63;;;1.60;;
75616;SDS011;64200;55.426;37.758;2023-03-24T16:23:20;2.70;;;1.27;;
75616;SDS011;64200;55.426;37.758;2023-03-24T16:28:21;5.47;;;1.90;;
75616;SDS011;64200;55.426;37.758;2023-03-24T16:33:23;2.08;;;1.27;;
75616;SDS011;64200;55.426;37.758;2023-03-24T16:38:24;2.13;;;1.92;;
75616;SDS011;64200;55.426;37.758;2023-03-24T16:43:25;3.45;;;1.80;;
75616;SDS011;64200;55.426;37.758;2023-03-24T16:48:26;2.55;;;1.40;;
75616;SDS011;64200;55.426;37.758;2023-03-24T16:53:27;4.70;;;1.67;;
75616;SDS011;64200;55.426;37.758;2023-03-24T16:58:27;3.33;;;1.60;;
75616;SDS011;64200;55.426;37.758;2023-03-24T17:03:29;2.90;;;1.23;;
75616;SDS011;64200;55.426;37.758;2023-03-24T17:08:29;2.10;;;1.70;;
75616;SDS011;64200;55.426;37.758;2023-03-24T17:13:30;3.08;;;1.30;;
75616;SDS011;64200;55.426;37.758;2023-03-24T17:18:31;2.57;;;1.57;;
75616;SDS011;64200;55.426;37.758;2023-03-24T17:23:32;3.75;;;1.65;;
75616;SDS011;64200;55.426;37.758;2023-03-24T17:28:33;4.40;;;1.83;;
75616;SDS011;64200;55.426;37.758;2023-03-24T17:33:35;3.80;;;2.13;;
75616;SDS011;64200;55.426;37.758;2023-03-24T17:38:35;3.00;;;1.88;;
75616;SDS011;64200;55.426;37.758;2023-03-24T17:43:37;7.18;;;1.98;;
75616;SDS011;64200;55.426;37.758;2023-03-24T17:48:37;2.55;;;1.42;;
75616;SDS011;64200;55.426;37.758;2023-03-24T17:53:38;3.30;;;1.70;;
75616;SDS011;64200;55.426;37.758;2023-03-24T17:58:39;4.07;;;2.15;;
75616;SDS011;64200;55.426;37.758;2023-03-24T18:03:40;4.00;;;2.25;;
75616;SDS011;64200;55.426;37.758;2023-03-24T18:08:41;3.47;;;1.92;;
75616;SDS011;64200;55.426;37.758;2023-03-24T18:13:42;5.37;;;2.23;;
75616;SDS011;64200;55.426;37.758;2023-03-24T18:18:43;3.10;;;2.10;;
75616;SDS011;64200;55.426;37.758;2023-03-24T18:23:49;6.20;;;2.90;;
75616;SDS011;64200;55.426;37.758;2023-03-24T18:28:50;4.50;;;2.97;;
75616;SDS011;64200;55.426;37.758;2023-03-24T18:33:51;7.78;;;4.53;;
75616;SDS011;64200;55.426;37.758;2023-03-24T18:38:56;4.25;;;2.58;;
75616;SDS011;64200;55.426;37.758;2023-03-24T18:43:59;5.15;;;3.28;;
75616;SDS011;64200;55.426;37.758;2023-03-24T18:48:59;6.32;;;3.53;;
75616;SDS011;64200;55.426;37.758;2023-03-24T18:54:00;5.97;;;3.60;;
75616;SDS011;64200;55.426;37.758;2023-03-24T18:59:00;7.35;;;4.80;;
75616;SDS011;64200;55.426;37.758;2023-03-24T19:04:01;7.53;;;3.83;;
75616;SDS011;64200;55.426;37.758;2023-03-24T19:09:01;4.28;;;2.47;;
75616;SDS011;64200;55.426;37.758;2023-03-24T19:14:04;9.50;;;4.25;;
75616;SDS011;64200;55.426;37.758;2023-03-24T19:19:05;5.13;;;2.60;;
75616;SDS011;64200;55.426;37.758;2023-03-24T19:24:07;9.48;;;3.67;;
75616;SDS011;64200;55.426;37.758;2023-03-24T19:29:07;3.25;;;2.55;;
75616;SDS011;64200;55.426;37.758;2023-03-24T19:34:08;1.53;;;1.20;;
75616;SDS011;64200;55.426;37.758;2023-03-24T19:39:09;2.03;;;1.40;;
75616;SDS011;64200;55.426;37.758;2023-03-24T19:44:13;2.85;;;1.73;;
75616;SDS011;64200;55.426;37.758;2023-03-24T19:49:13;3.22;;;2.08;;
75616;SDS011;64200;55.426;37.758;2023-03-24T19:54:14;1.10;;;0.90;;
75616;SDS011;64200;55.426;37.758;2023-03-24T19:59:15;2.72;;;2.03;;
75616;SDS011;64200;55.426;37.758;2023-03-24T20:04:22;3.33;;;2.33;;
75616;SDS011;64200;55.426;37.758;2023-03-24T20:09:25;4.28;;;1.95;;
75616;SDS011;64200;55.426;37.758;2023-03-24T20:14:26;4.13;;;2.08;;
75616;SDS011;64200;55.426;37.758;2023-03-24T20:19:27;3.92;;;2.15;;
75616;SDS011;64200;55.426;37.758;2023-03-24T20:24:29;2.03;;;1.48;;
75616;SDS011;64200;55.426;37.758;2023-03-24T20:29:30;2.00;;;1.58;;
75616;SDS011;64200;55.426;37.758;2023-03-24T20:34:31;2.80;;;2.08;;
75616;SDS011;64200;55.426;37.758;2023-03-24T20:39:32;2.65;;;1.55;;
75616;SDS011;64200;55.426;37.758;2023-03-24T20:44:33;4.10;;;2.15;;
75616;SDS011;64200;55.426;37.758;2023-03-24T20:49:34;2.83;;;2.03;;
75616;SDS011;64200;55.426;37.758;2023-03-24T20:54:34;3.42;;;2.08;;
75616;SDS011;64200;55.426;37.758;2023-03-24T20:59:35;2.15;;;1.55;;
75616;SDS011;64200;55.426;37.758;2023-03-24T21:04:36;2.03;;;1.25;;
75616;SDS011;64200;55.426;37.758;2023-03-24T21:09:37;5.20;;;3.27;;
75616;SDS011;64200;55.426;37.758;2023-03-24T21:14:38;5.55;;;2.88;;
75616;SDS011;64200;55.426;37.758;2023-03-24T21:19:40;2.72;;;1.55;;
75616;SDS011;64200;55.426;37.758;2023-03-24T21:24:45;3.30;;;2.25;;
75616;SDS011;64200;55.426;37.758;2023-03-24T21:29:46;5.33;;;2.83;;
75616;SDS011;64200;55.426;37.758;2023-03-24T21:34:46;3.30;;;1.73;;
75616;SDS011;64200;55.426;37.758;2023-03-24T21:39:47;4.55;;;2.70;;
75616;SDS011;64200;55.426;37.758;2023-03-24T21:44:48;6.87;;;2.63;;
75616;SDS011;64200;55.426;37.758;2023-03-24T21:49:49;1.45;;;1.20;;
75616;SDS011;64200;55.426;37.758;2023-03-24T21:54:52;5.68;;;2.50;;
75616;SDS011;64200;55.426;37.758;2023-03-24T21:59:52;4.43;;;2.00;;
75616;SDS011;64200;55.426;37.758;2023-03-24T22:04:53;2.25;;;1.40;;
75616;SDS011;64200;55.426;37.758;2023-03-24T22:09:54;3.07;;;1.57;;
75616;SDS011;64200;55.426;37.758;2023-03-24T22:14:54;3.73;;;1.73;;
75616;SDS011;64200;55.426;37.758;2023-03-24T22:19:55;4.93;;;2.63;;
75616;SDS011;64200;55.426;37.758;2023-03-24T22:24:55;1.60;;;1.20;;
75616;SDS011;64200;55.426;37.758;2023-03-24T22:29:56;1.60;;;1.35;;
75616;SDS011;64200;55.426;37.758;2023-03-24T22:34:56;5.07;;;2.10;;
75616;SDS011;64200;55.426;37.758;2023-03-24T22:39:57;5.57;;;2.83;;
75616;SDS011;64200;55.426;37.758;2023-03-24T22:44:57;2.23;;;1.13;;
75616;SDS011;64200;55.426;37.758;2023-03-24T22:49:58;5.93;;;1.50;;
75616;SDS011;64200;55.426;37.758;2023-03-24T22:54:58;6.47;;;2.20;;
75616;SDS011;64200;55.426;37.758;2023-03-24T23:00:00;2.80;;;2.03;;
75616;SDS011;64200;55.426;37.758;2023-03-24T23:05:01;4.03;;;2.15;;
75616;SDS011;64200;55.426;37.758;2023-03-24T23:10:01;1.60;;;0.80;;
75616;SDS011;64200;55.426;37.758;2023-03-24T23:15:05;3.95;;;2.40;;
75616;SDS011;64200;55.426;37.758;2023-03-24T23:20:07;3.63;;;1.50;;
75616;SDS011;64200;55.426;37.758;2023-03-24T23:25:08;3.00;;;1.85;;
75616;SDS011;64200;55.426;37.758;2023-03-24T23:30:09;4.75;;;1.70;;
75616;SDS011;64200;55.426;37.758;2023-03-24T23:35:11;2.80;;;1.75;;
75616;SDS011;64200;55.426;37.758;2023-03-24T23:40:12;4.15;;;2.72;;
75616;SDS011;64200;55.426;37.758;2023-03-24T23:45:17;3.38;;;1.83;;
75616;SDS011;64200;55.426;37.758;2023-03-24T23:50:19;3.55;;;2.00;;
75616;SDS011;64200;55.426;37.758;2023-03-24T23:55:20;9.75;;;2.92;;
